Time;durP1;ratioP1;P1;durP2;ratioP2;P2;SDS_P1;SDS_P2;PMS_P1;PMS_P2;Temp;Humidity;BMP_temperature;BMP_pressure;BME280_temperature;BME280_humidity;BME280_pressure;Samples;Min_cycle;Max_cycle;Signal;HPM_P1;HPM_P2
2023/09/25 00:00:32;;;;;;;2.25;1.08;;;;;;;26.22;42.97;100225.06;4466152;32;34764;-68
2023/09/25 00:03:02;;;;;;;1.77;1.10;;;;;;;26.22;42.87;100209.47;4467612;32;33387;-68
2023/09/25 00:05:30;;;;;;;3.10;1.10;;;;;;;26.23;42.85;100211.13;4453746;32;33479;-68
2023/09/25 00:07:58;;;;;;;4.28;1.35;;;;;;;26.22;42.89;100212.22;4466419;32;34161;-65
2023/09/25 00:10:26;;;;;;;1.77;1.02;;;;;;;26.21;42.89;100205.06;4467109;32;34073;-69
2023/09/25 00:12:53;;;;;;;1.45;0.73;;;;;;;26.22;42.95;100194.97;4468229;32;34342;-65
2023/09/25 00:15:21;;;;;;;4.15;1.00;;;;;;;26.22;42.89;100201.25;4469585;32;33860;-68
2023/09/25 00:17:50;;;;;;;3.03;1.10;;;;;;;26.21;42.98;100199.59;4469446;32;34004;-67
2023/09/25 00:20:20;;;;;;;1.35;0.93;;;;;;;26.22;42.92;100194.97;4473529;32;34170;-65
2023/09/25 00:22:47;;;;;;;;;;;;;;;26.21;43.04;100188.66;4483918;32;32551;-67
2023/09/25 00:25:15;;;;;;;3.15;1.20;;;;;;;26.32;42.81;100184.28;4483685;32;33513;-66
2023/09/25 00:27:43;;;;;;;3.17;1.17;;;;;;;26.25;42.89;100184.38;4484509;32;33877;-66
2023/09/25 00:30:11;;;;;;;2.22;0.98;;;;;;;26.20;43.08;100187.81;4484752;32;34818;-66
2023/09/25 00:32:40;;;;;;;3.30;1.00;;;;;;;26.20;43.05;100187.81;4484981;32;33131;-66
2023/09/25 00:35:10;;;;;;;1.52;1.10;;;;;;;26.20;43.13;100176.88;4483678;32;33751;-66
2023/09/25 00:37:38;;;;;;;;;;;;;;;26.21;43.14;100177.72;4485298;32;33924;-66
2023/09/25 00:40:18;;;;;;;3.70;1.00;;;;;;;26.31;42.83;100174.41;4483742;32;34081;-67
2023/09/25 00:42:48;;;;;;;3.80;1.17;;;;;;;26.21;43.09;100172.25;4472307;32;33603;-66
2023/09/25 00:45:16;;;;;;;3.97;1.05;;;;;;;26.20;43.21;100187.81;4483655;32;33725;-67
2023/09/25 00:47:43;;;;;;;3.28;1.00;;;;;;;26.19;43.15;100186.16;4484592;32;33509;-67
2023/09/25 00:50:11;;;;;;;5.10;1.20;;;;;;;26.19;43.16;100186.16;4484862;32;34905;-67
2023/09/25 00:52:41;;;;;;;1.95;0.98;;;;;;;26.17;43.14;100182.81;4484910;32;33266;-67
2023/09/25 00:55:09;;;;;;;;;;;;;;;26.19;43.19;100180.66;4483881;32;33738;-67
2023/09/25 00:57:39;;;;;;;4.82;1.30;;;;;;;26.30;43.00;100178.19;4483639;32;33559;-67
2023/09/25 01:00:11;;;;;;;2.17;0.80;;;;;;;26.20;43.12;100174.12;4484414;32;33994;-66
2023/09/25 01:02:39;;;;;;;2.28;1.27;;;;;;;26.20;43.10;100176.88;4483056;32;33476;-67
2023/09/25 01:05:10;;;;;;;1.98;0.73;;;;;;;26.19;43.09;100175.19;4484771;32;33764;-66
2023/09/25 01:07:38;;;;;;;2.00;1.10;;;;;;;26.18;43.16;100178.19;4470826;32;34751;-66
2023/09/25 01:10:10;;;;;;;1.70;1.10;;;;;;;26.18;43.23;100194.59;4483620;32;34461;-67
2023/09/25 01:12:38;;;;;;;2.58;1.05;;;;;;;26.17;43.28;100207.44;4483583;32;33168;-67
2023/09/25 01:15:06;;;;;;;1.85;1.20;;;;;;;26.21;42.89;100205.06;4484524;32;34738;-68
2023/09/25 01:17:34;;;;;;;3.72;1.00;;;;;;;26.18;43.19;100208.28;4483482;32;33852;-66
2023/09/25 01:20:13;;;;;;;2.30;1.23;;;;;;;26.17;43.12;100218.38;4483157;32;34938;-67
2023/09/25 01:22:41;;;;;;;3.55;1.30;;;;;;;26.17;43.27;100214.81;4482864;32;33409;-66
2023/09/25 01:25:12;;;;;;;2.00;1.15;;;;;;;26.16;43.27;100216.72;4484788;32;34792;-67
2023/09/25 01:27:40;;;;;;;2.92;1.23;;;;;;;26.17;43.21;100212.09;4483319;32;34725;-66
2023/09/25 01:30:09;;;;;;;1.90;0.80;;;;;;;26.17;43.19;100218.38;4484598;32;34542;-67
2023/09/25 01:32:40;;;;;;;2.42;1.10;;;;;;;26.19;43.17;100212.66;4484648;32;33669;-66
2023/09/25 01:35:18;;;;;;;1.95;0.93;;;;;;;26.22;43.10;100216.84;4483226;32;33811;-67
2023/09/25 01:37:47;;;;;;;5.25;1.05;;;;;;;26.20;43.32;100222.53;4483627;32;32675;-67
2023/09/25 01:40:18;;;;;;;4.85;1.20;;;;;;;26.19;43.20;100220.88;4457643;32;34121;-66
2023/09/25 01:42:46;;;;;;;2.30;1.10;;;;;;;26.18;43.14;100219.22;4458273;32;32951;-66
2023/09/25 01:45:16;;;;;;;1.60;0.80;;;;;;;26.17;43.15;100207.44;4484474;32;33912;-67
2023/09/25 01:47:51;;;;;;;2.53;1.10;;;;;;;26.16;43.17;100207.66;4484159;32;35312;-67
2023/09/25 01:50:24;;;;;;;4.15;1.20;;;;;;;26.17;43.18;100196.50;4484203;32;34210;-66
2023/09/25 01:53:00;;;;;;;3.60;1.20;;;;;;;26.16;43.28;100183.03;4483238;32;33526;-67
2023/09/25 01:55:29;;;;;;;3.28;1.25;;;;;;;26.15;43.25;100179.47;4470354;32;33923;-67
2023/09/25 01:57:58;;;;;;;1.55;0.80;;;;;;;26.16;43.19;100174.84;4483374;32;33449;-67
2023/09/25 02:00:25;;;;;;;2.78;1.02;;;;;;;26.16;43.18;100172.09;4484178;32;34899;-66
2023/09/25 02:02:53;;;;;;;3.15;1.15;;;;;;;26.15;43.18;100160.34;4484376;32;34459;-66
2023/09/25 02:05:21;;;;;;;1.90;1.10;;;;;;;26.15;43.20;100140.34;4483199;32;34811;-67
2023/09/25 02:07:51;;;;;;;3.92;1.30;;;;;;;26.15;43.15;100132.97;4484308;31;34363;-66
2023/09/25 02:10:19;;;;;;;2.47;1.27;;;;;;;26.15;43.23;100132.97;4482847;32;33799;-66
2023/09/25 02:12:48;;;;;;;2.40;1.00;;;;;;;26.15;43.31;100132.97;4484079;32;34388;-67
2023/09/25 02:15:15;;;;;;;2.92;1.10;;;;;;;26.15;43.24;100132.97;4484172;32;33986;-67
2023/09/25 02:17:43;;;;;;;4.32;1.00;;;;;;;26.15;43.29;100130.25;4483190;32;34834;-66
2023/09/25 02:20:17;;;;;;;2.65;1.00;;;;;;;26.16;43.27;100125.59;4484187;32;34207;-67
2023/09/25 02:22:47;;;;;;;1.65;1.00;;;;;;;26.16;43.27;100118.25;4483137;32;33642;-67
2023/09/25 02:25:16;;;;;;;2.00;0.90;;;;;;;26.16;43.26;100117.41;4482980;32;34687;-67
2023/09/25 02:27:43;;;;;;;1.52;0.95;;;;;;;26.16;43.24;100117.41;4482898;32;33495;-67
2023/09/25 02:30:11;;;;;;;1.87;0.77;;;;;;;26.16;43.28;100104.59;4484158;32;34181;-68
2023/09/25 02:32:42;;;;;;;3.55;1.20;;;;;;;26.16;43.25;100093.66;4482067;32;33596;-67
2023/09/25 02:35:10;;;;;;;2.17;1.10;;;;;;;26.17;43.32;100084.37;4477187;32;33757;-65
2023/09/25 02:37:40;;;;;;;6.22;1.00;;;;;;;26.17;43.34;100083.53;4484160;32;34757;-66
2023/09/25 02:40:15;;;;;;;2.28;1.10;;;;;;;26.17;43.36;100086.28;4484079;32;34787;-66
2023/09/25 02:42:45;;;;;;;1.62;1.08;;;;;;;26.17;43.41;100094.47;4468399;32;33351;-66
2023/09/25 02:45:14;;;;;;;1.92;1.10;;;;;;;26.18;43.29;100102.44;4468499;32;33891;-66
2023/09/25 02:47:42;;;;;;;3.75;1.02;;;;;;;26.18;43.28;100110.63;4468109;32;34326;-66
2023/09/25 02:50:10;;;;;;;4.28;1.23;;;;;;;26.16;43.35;100115.53;4468304;32;34866;-66
2023/09/25 02:52:38;;;;;;;2.55;1.02;;;;;;;26.17;43.33;100106.25;4468636;32;33190;-64
2023/09/25 02:55:07;;;;;;;6.03;1.52;;;;;;;26.16;43.25;100109.19;4483878;32;33724;-64
2023/09/25 02:57:34;;;;;;;6.82;1.50;;;;;;;26.16;42.75;100110.06;4484031;32;33996;-64
2023/09/25 03:00:08;;;;;;;4.80;1.08;;;;;;;26.14;42.40;100103.97;4483826;32;34020;-64
2023/09/25 03:02:37;;;;;;;5.55;1.42;;;;;;;26.13;42.38;100091.37;4483774;32;33513;-64
2023/09/25 03:05:05;;;;;;;4.53;1.45;;;;;;;26.13;42.10;100104.22;4483992;32;34827;-64
2023/09/25 03:07:34;;;;;;;3.95;1.27;;;;;;;26.12;41.83;100102.56;4482647;32;33917;-64
2023/09/25 03:10:02;;;;;;;4.43;1.60;;;;;;;26.09;41.59;100103.84;4483821;32;33761;-64
2023/09/25 03:12:30;;;;;;;4.00;1.20;;;;;;;26.05;41.51;100107.31;4483860;32;33385;-64
2023/09/25 03:14:58;;;;;;;2.80;1.10;;;;;;;26.04;41.41;100119.31;4483988;32;33941;-64
2023/09/25 03:17:25;;;;;;;2.85;1.10;;;;;;;26.02;41.36;100126.91;4483759;32;34476;-64
2023/09/25 03:19:56;;;;;;;2.62;1.20;;;;;;;26.00;41.41;100134.53;4483794;32;34198;-64
2023/09/25 03:22:25;;;;;;;3.12;1.42;;;;;;;25.98;41.44;100139.41;4482470;32;34339;-64
2023/09/25 03:24:52;;;;;;;4.87;1.45;;;;;;;25.97;41.41;100143.19;4482498;32;33963;-65
2023/09/25 03:27:20;;;;;;;4.00;1.37;;;;;;;25.96;41.47;100136.88;4483847;32;33474;-64
2023/09/25 03:29:47;;;;;;;2.20;1.10;;;;;;;25.95;41.43;100143.44;4483534;32;35019;-64
2023/09/25 03:32:15;;;;;;;3.03;1.20;;;;;;;25.94;41.38;100152.72;4483757;32;33765;-64
2023/09/25 03:34:43;;;;;;;2.78;1.30;;;;;;;25.93;41.44;100149.16;4483731;32;33856;-64
2023/09/25 03:37:11;;;;;;;5.57;1.50;;;;;;;25.92;41.50;100147.44;4483496;32;33914;-64
2023/09/25 03:39:38;;;;;;;3.97;1.30;;;;;;;25.92;41.58;100158.38;4483905;32;35049;-64
2023/09/25 03:42:06;;;;;;;3.85;1.37;;;;;;;25.92;41.62;100169.31;4483554;32;33796;-64
2023/09/25 03:44:34;;;;;;;2.55;1.00;;;;;;;25.93;41.68;100189.31;4482881;31;32863;-64
2023/09/25 03:47:02;;;;;;;3.92;1.40;;;;;;;25.93;41.71;100208.47;4483592;32;33734;-64
2023/09/25 03:49:30;;;;;;;4.95;1.40;;;;;;;25.93;41.73;100211.19;4483593;32;34836;-64
2023/09/25 03:51:58;;;;;;;6.53;1.50;;;;;;;25.92;41.75;100212.25;4482046;32;32394;-64
2023/09/25 03:54:25;;;;;;;2.60;1.20;;;;;;;25.93;41.76;100224.88;4483443;32;33323;-64
2023/09/25 03:56:53;;;;;;;4.15;1.55;;;;;;;25.92;41.81;100237.66;4483443;32;34010;-64
2023/09/25 03:59:21;;;;;;;6.22;1.30;;;;;;;25.91;41.81;100241.47;4483279;32;33594;-64
2023/09/25 04:01:48;;;;;;;2.28;1.00;;;;;;;25.91;41.82;100237.91;4483200;32;34360;-64
2023/09/25 04:04:16;;;;;;;1.30;1.02;;;;;;;25.92;41.87;100242.31;4482146;32;34237;-64
2023/09/25 04:06:43;;;;;;;2.67;1.20;;;;;;;25.90;41.90;100248.03;4483052;32;33742;-64
2023/09/25 04:09:11;;;;;;;1.73;1.10;;;;;;;25.90;41.91;100252.66;4483210;32;34558;-64
2023/09/25 04:11:39;;;;;;;2.30;1.30;;;;;;;25.91;41.90;100260.63;4483307;32;34368;-64
2023/09/25 04:14:07;;;;;;;2.45;1.20;;;;;;;25.90;41.95;100252.66;4483202;32;34652;-64
2023/09/25 04:16:34;;;;;;;4.30;1.15;;;;;;;25.89;41.96;100257.28;4481976;32;34081;-65
2023/09/25 04:19:04;;;;;;;3.62;1.37;;;;;;;25.90;41.97;100260.84;4483109;32;34907;-64
2023/09/25 04:21:32;;;;;;;;;;;;;;;25.90;42.02;100258.13;4483314;32;33638;-64
2023/09/25 04:24:01;;;;;;;2.75;1.20;;;;;;;26.00;41.81;100263.87;4483245;32;33561;-64
2023/09/25 04:26:29;;;;;;;5.43;1.50;;;;;;;25.92;41.95;100261.44;4483051;32;34028;-64
2023/09/25 04:28:57;;;;;;;1.90;1.30;;;;;;;25.89;42.02;100254.56;4482808;32;34910;-64
2023/09/25 04:31:24;;;;;;;4.43;1.20;;;;;;;25.88;42.08;100263.84;4482992;32;33666;-64
2023/09/25 04:33:52;;;;;;;4.12;1.27;;;;;;;25.88;42.18;100258.38;4482857;32;34802;-64
2023/09/25 04:36:23;;;;;;;3.62;1.35;;;;;;;25.88;42.18;100262.97;4483040;32;34938;-65
2023/09/25 04:38:51;;;;;;;2.67;1.30;;;;;;;25.88;42.18;100263.84;4482796;32;34016;-64
2023/09/25 04:41:19;;;;;;;5.47;1.52;;;;;;;25.88;42.17;100268.44;4482756;32;34644;-64
2023/09/25 04:43:47;;;;;;;4.20;1.27;;;;;;;25.89;42.20;100259.19;4482756;32;33689;-64
2023/09/25 04:46:14;;;;;;;4.45;1.73;;;;;;;25.89;42.21;100267.41;4482669;32;34024;-64
2023/09/25 04:48:43;;;;;;;2.58;1.25;;;;;;;25.89;42.24;100264.66;4482467;32;34670;-64
2023/09/25 04:51:11;;;;;;;2.70;1.60;;;;;;;25.89;42.24;100267.41;4482505;32;33730;-64
2023/09/25 04:53:38;;;;;;;4.35;1.40;;;;;;;25.88;42.28;100263.84;4482468;32;34937;-64
2023/09/25 04:56:06;;;;;;;2.45;1.12;;;;;;;25.88;42.33;100268.44;4482440;32;34078;-64
2023/09/25 04:58:34;;;;;;;4.62;1.40;;;;;;;25.87;42.37;100274.97;4483288;32;34242;-64
2023/09/25 05:01:02;;;;;;;5.70;1.62;;;;;;;25.88;42.36;100276.66;4484572;32;33844;-64
2023/09/25 05:03:30;;;;;;;4.10;1.45;;;;;;;25.88;42.36;100272.03;4484657;32;34686;-64
2023/09/25 05:05:57;;;;;;;3.92;1.40;;;;;;;25.88;42.34;100274.78;4485135;32;33975;-64
2023/09/25 05:08:25;;;;;;;2.67;1.25;;;;;;;25.89;42.35;100278.34;4484761;32;33837;-64
2023/09/25 05:10:53;;;;;;;4.25;1.60;;;;;;;25.88;42.42;100276.66;4483382;32;33750;-64
2023/09/25 05:13:21;;;;;;;4.87;1.30;;;;;;;25.88;42.40;100277.50;4484743;32;33840;-65
2023/09/25 05:15:48;;;;;;;6.18;2.00;;;;;;;25.87;42.37;100281.28;4484677;32;33887;-64
2023/09/25 05:18:16;;;;;;;4.75;1.27;;;;;;;25.88;42.41;100279.38;4484631;32;34837;-64
2023/09/25 05:20:44;;;;;;;2.55;1.20;;;;;;;25.88;42.41;100276.66;4484648;32;33183;-64
2023/09/25 05:23:11;;;;;;;4.32;1.87;;;;;;;25.88;42.42;100273.91;4484634;32;34452;-64
2023/09/25 05:25:39;;;;;;;3.35;1.45;;;;;;;25.88;42.41;100293.03;4484581;32;33740;-65
2023/09/25 05:28:06;;;;;;;4.97;1.33;;;;;;;25.87;42.46;100296.84;4484241;32;34810;-64
2023/09/25 05:30:34;;;;;;;3.17;1.58;;;;;;;25.87;42.49;100297.69;4484579;32;32787;-64
2023/09/25 05:33:02;;;;;;;3.78;1.33;;;;;;;25.88;42.57;100284.84;4484421;32;34707;-64
2023/09/25 05:35:30;;;;;;;5.32;1.52;;;;;;;25.87;42.56;100292.22;4483302;32;34880;-64
2023/09/25 05:37:57;;;;;;;5.43;1.37;;;;;;;25.88;42.53;100291.19;4484500;32;34027;-64
2023/09/25 05:40:25;;;;;;;6.10;1.83;;;;;;;25.88;42.52;100291.19;4484280;32;33222;-64
2023/09/25 05:42:53;;;;;;;7.07;1.52;;;;;;;25.88;42.57;100284.84;4484466;32;33479;-65
2023/09/25 05:45:21;;;;;;;7.35;1.70;;;;;;;25.88;42.62;100290.31;4484469;32;33988;-64
2023/09/25 05:47:49;;;;;;;6.45;1.70;;;;;;;25.88;42.63;100298.50;4484204;32;34081;-64
2023/09/25 05:50:16;;;;;;;5.15;1.50;;;;;;;25.88;42.59;100313.03;4484515;32;33776;-64
2023/09/25 05:52:44;;;;;;;6.00;1.73;;;;;;;25.88;42.64;100320.38;4484371;32;34649;-64
2023/09/25 05:55:12;;;;;;;5.18;1.60;;;;;;;25.88;42.63;100313.03;4482974;32;34741;-64
2023/09/25 05:57:41;;;;;;;6.07;1.67;;;;;;;25.87;42.66;100316.00;4483122;32;34288;-64
2023/09/25 06:00:12;;;;;;;4.25;1.83;;;;;;;25.87;42.67;100325.03;4484425;32;33538;-64
2023/09/25 06:02:41;;;;;;;3.35;1.60;;;;;;;25.87;42.71;100322.28;4484177;32;33712;-64
2023/09/25 06:05:12;;;;;;;4.10;1.73;;;;;;;25.87;42.74;100330.50;4484383;32;34867;-64
2023/09/25 06:07:42;;;;;;;2.22;1.50;;;;;;;25.86;42.75;100334.28;4482604;32;33974;-64
2023/09/25 06:10:10;;;;;;;4.50;1.62;;;;;;;25.85;42.77;100332.63;4484328;32;34327;-64
2023/09/25 06:12:41;;;;;;;4.45;1.62;;;;;;;25.85;42.79;100343.56;4483161;32;33837;-64
2023/09/25 06:15:09;;;;;;;5.43;1.95;;;;;;;25.84;42.81;100344.63;4484126;32;35075;-64
2023/09/25 06:17:38;;;;;;;;;;;;;;;25.83;42.86;100342.13;4484513;32;34244;-64
2023/09/25 06:20:14;;;;;;;4.10;1.52;;;;;;;25.95;42.63;100345.75;4484278;32;33409;-64
2023/09/25 06:22:44;;;;;;;5.43;1.80;;;;;;;25.87;42.80;100343.31;4484108;32;33540;-64
2023/09/25 06:25:16;;;;;;;10.60;2.30;;;;;;;25.84;42.92;100346.53;4482971;32;33994;-64
2023/09/25 06:27:47;;;;;;;7.10;1.70;;;;;;;25.81;43.12;100344.25;4482904;32;34921;-64
2023/09/25 06:30:16;;;;;;;5.85;1.58;;;;;;;25.81;43.07;100356.03;4484137;32;34440;-64
2023/09/25 06:32:44;;;;;;;5.18;1.80;;;;;;;25.82;43.04;100356.84;4482785;32;33158;-64
2023/09/25 06:35:12;;;;;;;9.68;1.90;;;;;;;25.82;43.03;100354.12;4483568;32;33967;-64
2023/09/25 06:37:40;;;;;;;7.12;1.70;;;;;;;25.82;43.06;100354.12;4482219;32;34596;-64
2023/09/25 06:40:11;;;;;;;6.47;1.50;;;;;;;25.81;43.07;100364.22;4482193;32;33521;-64
2023/09/25 06:42:39;;;;;;;6.10;1.67;;;;;;;25.81;43.10;100363.38;4482146;32;33813;-64
2023/09/25 06:45:08;;;;;;;7.03;1.70;;;;;;;25.80;43.09;100369.94;4482649;32;33775;-64
2023/09/25 06:47:36;;;;;;;4.18;1.60;;;;;;;25.80;43.11;100369.94;4482359;32;33769;-64
2023/09/25 06:50:05;;;;;;;5.32;1.75;;;;;;;25.80;43.10;100376.22;4481079;32;33757;-64
2023/09/25 06:52:33;;;;;;;6.07;1.83;;;;;;;25.80;43.05;100384.44;4483927;32;33790;-64
2023/09/25 06:55:00;;;;;;;5.68;1.90;;;;;;;25.80;43.09;100375.41;4483888;32;34741;-64
2023/09/25 06:57:28;;;;;;;7.87;2.22;;;;;;;25.79;43.13;100384.66;4484290;32;34853;-64
2023/09/25 06:59:56;;;;;;;4.12;1.75;;;;;;;25.79;43.19;100373.72;4484294;32;34081;-65
2023/09/25 07:02:25;;;;;;;5.37;1.98;;;;;;;25.78;43.18;100380.25;4483697;32;33942;-64
2023/09/25 07:04:52;;;;;;;11.73;2.35;;;;;;;25.78;43.19;100383.81;4484214;32;34007;-64
2023/09/25 07:07:21;;;;;;;5.23;1.80;;;;;;;25.79;43.15;100390.13;4484016;32;33889;-64
2023/09/25 07:09:49;;;;;;;3.35;1.35;;;;;;;25.79;43.18;100387.41;4483838;32;33632;-64
2023/09/25 07:12:18;;;;;;;4.97;1.70;;;;;;;25.77;43.24;100389.50;4482674;32;33856;-65
2023/09/25 07:14:55;;;;;;;3.80;1.60;;;;;;;25.78;43.22;100383.81;4483286;32;34915;-65
2023/09/25 07:17:24;;;;;;;5.55;2.05;;;;;;;25.77;43.25;100381.31;4482603;32;33764;-64
2023/09/25 07:19:52;;;;;;;4.93;1.85;;;;;;;25.77;43.25;100378.56;4481750;32;33566;-65
2023/09/25 07:22:22;;;;;;;4.55;1.80;;;;;;;25.75;43.32;100377.94;4482566;32;34695;-64
2023/09/25 07:24:50;;;;;;;5.95;2.00;;;;;;;25.75;43.37;100375.22;4483821;32;33668;-65
2023/09/25 07:27:18;;;;;;;5.40;1.73;;;;;;;25.75;43.32;100372.47;4484007;32;33760;-65
2023/09/25 07:29:46;;;;;;;6.82;2.30;;;;;;;25.74;43.36;100373.53;4483550;32;33580;-64
2023/09/25 07:32:14;;;;;;;5.45;2.08;;;;;;;25.74;43.42;100373.53;4482523;32;34709;-65
2023/09/25 07:34:43;;;;;;;9.48;2.10;;;;;;;25.73;43.38;100380.88;4483684;32;34410;-64
2023/09/25 07:37:12;;;;;;;8.18;2.10;;;;;;;25.71;43.38;100377.56;4483532;32;35126;-65
2023/09/25 07:39:40;;;;;;;3.45;1.62;;;;;;;25.72;43.43;100379.22;4483785;32;33394;-65
2023/09/25 07:42:12;;;;;;;5.75;1.70;;;;;;;25.72;43.40;100379.22;4483859;31;34833;-64
2023/09/25 07:44:42;;;;;;;4.40;1.85;;;;;;;25.71;43.48;100393.97;4474145;32;34913;-64
2023/09/25 07:47:12;;;;;;;5.20;1.77;;;;;;;25.72;43.56;100401.09;4468304;32;35111;-64
2023/09/25 07:49:44;;;;;;;4.47;1.95;;;;;;;25.71;43.55;100402.16;4464004;32;77989;-63
2023/09/25 07:52:16;;;;;;;5.55;2.00;;;;;;;25.70;43.61;100403.22;4467815;32;33677;-64
2023/09/25 07:54:51;;;;;;;6.43;2.03;;;;;;;25.68;43.70;100414.38;4473031;32;33893;-64
2023/09/25 07:57:19;;;;;;;5.12;1.77;;;;;;;25.69;43.70;100410.59;4483278;32;34916;-64
2023/09/25 07:59:48;;;;;;;4.07;2.00;;;;;;;25.69;43.70;100409.75;4469560;32;33675;-64
2023/09/25 08:02:20;;;;;;;6.40;1.98;;;;;;;25.69;43.69;100418.81;4482019;32;33838;-63
2023/09/25 08:04:48;;;;;;;3.28;1.58;;;;;;;25.68;43.76;100421.75;4483302;32;34504;-64
2023/09/25 08:07:18;;;;;;;4.68;1.70;;;;;;;25.69;43.71;100431.59;4482013;32;33847;-64
2023/09/25 08:09:46;;;;;;;6.07;2.03;;;;;;;25.69;43.74;100432.47;4481859;32;33545;-64
2023/09/25 08:12:14;;;;;;;3.85;1.80;;;;;;;25.69;43.91;100437.94;4483228;32;34602;-64
2023/09/25 08:14:42;;;;;;;5.68;1.70;;;;;;;25.69;43.81;100440.66;4483220;32;34651;-64
2023/09/25 08:17:09;;;;;;;7.40;2.22;;;;;;;25.69;43.94;100440.66;4482897;32;34443;-64
2023/09/25 08:19:37;;;;;;;4.65;1.80;;;;;;;25.69;43.95;100437.94;4482051;32;33096;-64
2023/09/25 08:22:05;;;;;;;3.72;1.98;;;;;;;25.70;44.04;100438.75;4482303;32;34550;-63
2023/09/25 08:24:32;;;;;;;6.12;2.10;;;;;;;25.68;44.05;100438.97;4482868;32;33979;-64
2023/09/25 08:27:00;;;;;;;5.95;1.92;;;;;;;25.69;43.98;100426.13;4483206;32;34142;-64
2023/09/25 08:29:28;;;;;;;5.25;1.87;;;;;;;25.69;44.21;100416.06;4482997;32;33517;-64
2023/09/25 08:31:55;;;;;;;3.42;1.98;;;;;;;25.68;44.32;100422.56;4484174;32;33619;-64
2023/09/25 08:34:23;;;;;;;4.57;1.90;;;;;;;25.69;44.20;100429.72;4484918;32;33945;-64
2023/09/25 08:36:51;;;;;;;4.87;1.87;;;;;;;25.69;44.16;100432.47;4484793;32;33244;-64
2023/09/25 08:39:18;;;;;;;4.75;2.20;;;;;;;25.69;44.09;100423.41;4473126;32;33738;-64
2023/09/25 08:41:46;;;;;;;4.45;1.98;;;;;;;25.69;44.07;100427.00;4469208;32;33696;-64
2023/09/25 08:44:15;;;;;;;5.10;2.15;;;;;;;25.70;44.26;100420.47;4484506;32;34418;-63
2023/09/25 08:46:43;;;;;;;5.75;2.17;;;;;;;25.72;44.22;100419.41;4484785;32;34188;-64
2023/09/25 08:49:11;;;;;;;6.07;2.12;;;;;;;25.72;44.21;100412.03;4483588;32;33416;-63
2023/09/25 08:51:39;;;;;;;4.10;1.80;;;;;;;25.71;44.17;100415.81;4483682;32;33975;-64
2023/09/25 08:54:07;;;;;;;6.72;1.80;;;;;;;25.73;44.11;100418.31;4483430;32;34347;-63
2023/09/25 08:56:35;;;;;;;4.65;2.03;;;;;;;25.73;44.00;100419.16;4457111;32;34010;-63
2023/09/25 08:59:03;;;;;;;5.53;2.20;;;;;;;25.73;44.04;100421.88;4468146;32;34316;-63
2023/09/25 09:01:30;;;;;;;8.15;2.35;;;;;;;25.73;44.07;100426.53;4467954;32;34064;-63
2023/09/25 09:03:58;;;;;;;6.10;2.05;;;;;;;25.74;44.22;100426.31;4469091;32;33387;-63
2023/09/25 09:06:26;;;;;;;6.87;1.90;;;;;;;25.74;44.10;100423.59;4469078;32;34184;-66
2023/09/25 09:08:56;;;;;;;5.78;2.10;;;;;;;25.76;44.17;100420.66;4467601;32;32535;-65
2023/09/25 09:11:25;;;;;;;6.45;2.22;;;;;;;25.76;44.20;100429.69;4467818;32;33808;-64
2023/09/25 09:13:54;;;;;;;4.30;1.80;;;;;;;25.77;44.17;100430.50;4469716;32;34459;-64
2023/09/25 09:16:21;;;;;;;5.37;2.03;;;;;;;25.77;44.26;100433.25;4469095;32;33616;-63
2023/09/25 09:18:49;;;;;;;5.93;1.90;;;;;;;25.77;44.33;100446.91;4469000;32;33761;-64
2023/09/25 09:21:26;;;;;;;7.25;2.20;;;;;;;25.76;44.30;100439.78;4467283;32;33985;-64
2023/09/25 09:23:56;;;;;;;6.10;2.22;;;;;;;25.77;44.29;100438.72;4467572;32;33683;-64
2023/09/25 09:26:25;;;;;;;6.75;2.45;;;;;;;25.77;44.29;100441.44;4455065;32;34066;-64
2023/09/25 09:28:56;;;;;;;5.57;2.10;;;;;;;25.78;44.32;100443.09;4469163;32;33395;-64
2023/09/25 09:31:24;;;;;;;8.20;2.05;;;;;;;25.77;44.42;100444.19;4468964;32;34713;-64
2023/09/25 09:33:54;;;;;;;5.68;2.20;;;;;;;25.77;44.39;100445.00;4467695;32;34067;-65
2023/09/25 09:36:23;;;;;;;6.20;1.92;;;;;;;25.76;44.31;100445.25;4475056;32;34088;-64
2023/09/25 09:38:51;;;;;;;5.10;2.15;;;;;;;25.77;44.33;100450.47;4486413;31;33502;-64
2023/09/25 09:41:19;;;;;;;5.47;2.12;;;;;;;25.77;44.33;100442.28;4476600;31;33857;-65
2023/09/25 09:43:47;;;;;;;5.97;2.35;;;;;;;25.77;44.32;100435.97;4482180;32;34457;-64
2023/09/25 09:46:15;;;;;;;8.48;2.50;;;;;;;25.76;44.56;100437.88;4481925;32;33905;-64
2023/09/25 09:48:44;;;;;;;4.10;1.90;;;;;;;25.77;44.63;100439.53;4482914;32;34523;-64
2023/09/25 09:51:13;;;;;;;7.57;2.72;;;;;;;25.78;44.59;100432.19;4483314;32;33502;-64
2023/09/25 09:53:40;;;;;;;6.20;2.50;;;;;;;25.79;44.65;100431.13;4484464;32;34148;-64
2023/09/25 09:56:08;;;;;;;5.10;2.12;;;;;;;25.78;44.71;100421.25;4483110;32;34009;-64
2023/09/25 09:58:36;;;;;;;6.87;2.00;;;;;;;25.78;44.79;100427.53;4470542;32;33343;-64
2023/09/25 10:01:04;;;;;;;4.72;2.10;;;;;;;25.78;44.79;100429.44;4483129;32;34826;-65
2023/09/25 10:03:32;;;;;;;5.32;2.28;;;;;;;25.77;44.84;100430.50;4468653;32;34801;-64
2023/09/25 10:06:01;;;;;;;6.35;2.65;;;;;;;25.77;45.09;100434.06;4467893;32;34188;-65
2023/09/25 10:08:28;;;;;;;8.43;2.47;;;;;;;25.77;45.19;100446.91;4484459;32;32877;-64
2023/09/25 10:11:16;;;;;;;9.02;3.03;;;;;;;25.77;45.26;100446.91;4483071;32;34758;-64
2023/09/25 10:13:43;;;;;;;6.47;2.65;;;;;;;25.80;45.27;100441.00;4483112;32;33063;-65
2023/09/25 10:16:13;;;;;;;7.18;2.80;;;;;;;25.78;45.44;100438.47;4484136;32;34842;-64
2023/09/25 10:18:41;;;;;;;8.40;2.92;;;;;;;25.77;45.43;100445.00;4483184;32;33983;-64
2023/09/25 10:21:14;;;;;;;6.87;2.53;;;;;;;25.79;45.41;100442.06;4471919;31;33862;-65
2023/09/25 10:23:45;;;;;;;7.32;2.62;;;;;;;25.78;45.59;100451.31;4468362;32;33748;-64
2023/09/25 10:26:19;;;;;;;7.15;2.65;;;;;;;25.78;45.65;100441.22;4465816;31;35119;-64
2023/09/25 10:28:58;;;;;;;8.32;3.03;;;;;;;25.80;45.66;100439.09;4474349;31;33430;-65
2023/09/25 10:31:29;;;;;;;5.85;2.70;;;;;;;25.80;45.73;100438.28;4482767;32;33855;-65
2023/09/25 10:33:59;;;;;;;7.03;2.85;;;;;;;25.78;45.72;100443.09;4471439;31;34099;-65
2023/09/25 10:36:37;;;;;;;6.20;2.65;;;;;;;25.78;45.66;100441.22;4468338;32;33762;-64
2023/09/25 10:39:08;;;;;;;5.75;2.40;;;;;;;25.80;45.72;100446.47;4470864;31;33591;-65
2023/09/25 10:41:36;;;;;;;5.68;2.45;;;;;;;25.79;45.64;100439.34;4468637;32;34831;-64
2023/09/25 10:44:04;;;;;;;6.22;2.58;;;;;;;25.78;45.59;100435.75;4472645;31;33479;-64
2023/09/25 10:46:32;;;;;;;6.37;3.00;;;;;;;25.79;45.69;100442.91;4467231;32;34174;-65
2023/09/25 10:49:00;;;;;;;7.45;2.87;;;;;;;25.80;45.61;100441.00;4476863;31;33482;-64
2023/09/25 10:51:28;;;;;;;6.93;2.70;;;;;;;25.79;45.71;100444.81;4468171;32;33960;-65
2023/09/25 10:53:55;;;;;;;5.20;2.28;;;;;;;25.79;45.74;100453.00;4472171;31;33996;-64
2023/09/25 10:56:23;;;;;;;5.45;2.50;;;;;;;25.80;45.73;100441.00;4479575;31;33847;-66
2023/09/25 10:58:52;;;;;;;8.15;2.65;;;;;;;25.79;45.78;100442.91;4471296;32;33187;-64
2023/09/25 11:01:30;;;;;;;7.85;2.90;;;;;;;25.80;45.82;100441.84;4483603;32;34123;-65
2023/09/25 11:03:59;;;;;;;6.80;2.72;;;;;;;25.80;45.85;100438.28;4477662;31;34020;-64
2023/09/25 11:06:28;;;;;;;6.45;2.72;;;;;;;25.80;45.72;100435.53;4468022;32;34002;-64
2023/09/25 11:08:58;;;;;;;6.53;2.97;;;;;;;25.81;45.73;100437.19;4466662;31;33682;-65
2023/09/25 11:11:29;;;;;;;7.47;3.05;;;;;;;25.82;45.97;100430.66;4469153;31;34018;-65
2023/09/25 11:13:59;;;;;;;6.47;2.33;;;;;;;25.82;45.81;100423.28;4475304;32;33874;-64
2023/09/25 11:16:28;;;;;;;5.32;2.35;;;;;;;25.82;45.59;100428.75;4467885;32;34621;-64
2023/09/25 11:19:11;;;;;;;5.75;2.85;;;;;;;25.82;45.67;100422.47;4451560;32;33624;-64
2023/09/25 11:21:40;;;;;;;8.05;2.80;;;;;;;25.86;46.01;100418.22;4482675;32;33931;-64
2023/09/25 11:24:09;;;;;;;7.15;2.75;;;;;;;25.83;46.07;100416.75;4482487;32;34086;-64
2023/09/25 11:26:37;;;;;;;7.18;2.80;;;;;;;25.81;45.97;100410.69;4476400;32;34279;-65
2023/09/25 11:29:06;;;;;;;6.95;2.83;;;;;;;25.84;45.78;100415.72;4454091;32;33681;-64
2023/09/25 11:31:35;;;;;;;8.00;3.12;;;;;;;25.84;45.71;100417.63;4453282;32;33984;-64
2023/09/25 11:34:17;;;;;;;7.85;3.28;;;;;;;25.85;46.00;100411.09;4468331;32;34014;-65